PWSweather.com
Personal Weather Stations
Station Observations
STWO1
East Side, Stillwater, OK 74075

East SideStillwater, OK 74075

Lat: 36.1242949, Lon: -97.044042

Elevation: 942

Station Type: Davis VP2

http://stillwaterweather.com

High Low Average
Temperature 90.3°F32.4°F 72.5°F22.5°F 81.5°F27.5°F
Dew Point 74.2°F23.4°F 68.8°F20.4°F 70.9°F21.6°F
Winds 12.7 mph S20.4 mph S 1.2 mph 1.9 mph 5.8 mph 9.3 mph
Wind Gusts 21.9 mph35.2 mph 3.5 mph5.6 mph 9.1 mph14.6 mph
Humidity 90% 56% 71%
Pressure 29.90 in1012.50 in 29.81 in1009.50 in -
Precipitation 0.00 in0.00 in - -
Hour Temp Dew Point Humidity Winds Wind Gusts Pressure Precip Precip Rate Daily Precip Total
12:00 AM 80.7°F27.1°C 71.2°F21.8°C 73% 4.6 mph S7.4 kmh S 5.8 mph9.3 kmh 29.81 in1009.5 mb - 0.00 in0.0 mm 0.00 in0.0 mm
12:10 AM 80.5°F26.9°C 71.0°F21.7°C 73% 8.1 mph SE13.0 kmh SE 11.5 mph18.5 kmh 29.81 in1009.5 mb - 0.00 in0.0 mm 0.00 in0.0 mm
12:20 AM 80.3°F26.8°C 70.9°F21.6°C 73% 5.8 mph SE9.3 kmh SE 6.9 mph11.1 kmh 29.81 in1009.5 mb - 0.00 in0.0 mm 0.00 in0.0 mm
12:30 AM 80.2°F26.8°C 70.8°F21.6°C 73% 4.6 mph SE7.4 kmh SE 6.9 mph11.1 kmh 29.81 in1009.5 mb - 0.00 in0.0 mm 0.00 in0.0 mm
12:40 AM 80.1°F26.7°C 70.7°F21.5°C 73% 5.8 mph SSE9.3 kmh SSE 11.5 mph18.5 kmh 29.81 in1009.5 mb - 0.00 in0.0 mm 0.00 in0.0 mm
12:50 AM 80.0°F26.7°C 71.0°F21.7°C 74% 5.8 mph SSE9.3 kmh SSE 6.9 mph11.1 kmh 29.81 in1009.5 mb - 0.00 in0.0 mm 0.00 in0.0 mm
01:00 AM 79.9°F26.6°C 70.9°F21.6°C 74% 4.6 mph SSE7.4 kmh SSE 10.4 mph16.7 kmh 29.81 in1009.5 mb - 0.00 in0.0 mm 0.00 in0.0 mm
01:10 AM 79.7°F26.5°C 70.7°F21.5°C 74% 5.8 mph S9.3 kmh S 9.2 mph14.8 kmh 29.81 in1009.5 mb - 0.00 in0.0 mm 0.00 in0.0 mm
01:20 AM 79.6°F26.4°C 70.6°F21.4°C 74% 6.9 mph S11.1 kmh S 11.5 mph18.5 kmh 29.81 in1009.5 mb - 0.00 in0.0 mm 0.00 in0.0 mm
01:30 AM 79.5°F26.4°C 70.5°F21.4°C 74% 5.8 mph SSE9.3 kmh SSE 11.5 mph18.5 kmh 29.81 in1009.5 mb - 0.00 in0.0 mm 0.00 in0.0 mm
01:40 AM 79.3°F26.3°C 70.7°F21.5°C 75% 4.6 mph SSE7.4 kmh SSE 6.9 mph11.1 kmh 29.82 in1009.8 mb - 0.00 in0.0 mm 0.00 in0.0 mm
01:50 AM 79.2°F26.2°C 70.6°F21.4°C 75% 4.6 mph SSE7.4 kmh SSE 8.1 mph13.0 kmh 29.82 in1009.8 mb - 0.00 in0.0 mm 0.00 in0.0 mm
02:00 AM 79.0°F26.1°C 70.8°F21.6°C 76% 5.8 mph SSE9.3 kmh SSE 5.8 mph9.3 kmh 29.82 in1009.8 mb - 0.00 in0.0 mm 0.00 in0.0 mm
02:10 AM 78.8°F26.0°C 70.6°F21.4°C 76% 4.6 mph SSE7.4 kmh SSE 5.8 mph9.3 kmh 29.82 in1009.8 mb - 0.00 in0.0 mm 0.00 in0.0 mm
02:20 AM 78.7°F25.9°C 70.5°F21.4°C 76% 5.8 mph SSE9.3 kmh SSE 6.9 mph11.1 kmh 29.82 in1009.8 mb - 0.00 in0.0 mm 0.00 in0.0 mm
02:30 AM 78.6°F25.9°C 70.8°F21.6°C 77% 4.6 mph SSE7.4 kmh SSE 11.5 mph18.5 kmh 29.82 in1009.8 mb - 0.00 in0.0 mm 0.00 in0.0 mm
02:40 AM 78.4°F25.8°C 70.6°F21.4°C 77% 4.6 mph S7.4 kmh S 8.1 mph13.0 kmh 29.82 in1009.8 mb - 0.00 in0.0 mm 0.00 in0.0 mm
02:50 AM 78.1°F25.6°C 70.7°F21.5°C 78% 4.6 mph SSE7.4 kmh SSE 3.5 mph5.6 kmh 29.82 in1009.8 mb - 0.00 in0.0 mm 0.00 in0.0 mm
03:00 AM 77.9°F25.5°C 70.5°F21.4°C 78% 3.5 mph SSE5.6 kmh SSE 5.8 mph9.3 kmh 29.82 in1009.8 mb - 0.00 in0.0 mm 0.00 in0.0 mm
03:10 AM 77.7°F25.4°C 70.3°F21.3°C 78% 3.5 mph SSE5.6 kmh SSE 3.5 mph5.6 kmh 29.82 in1009.8 mb - 0.00 in0.0 mm 0.00 in0.0 mm
03:20 AM 77.6°F25.3°C 70.2°F21.2°C 78% 3.5 mph SSE5.6 kmh SSE 4.6 mph7.4 kmh 29.82 in1009.8 mb - 0.00 in0.0 mm 0.00 in0.0 mm
03:30 AM 77.4°F25.2°C 70.4°F21.3°C 79% 4.6 mph SSE7.4 kmh SSE 5.8 mph9.3 kmh 29.82 in1009.8 mb - 0.00 in0.0 mm 0.00 in0.0 mm
03:40 AM 77.2°F25.1°C 70.2°F21.2°C 79% 1.2 mph SSE1.9 kmh SSE 4.6 mph7.4 kmh 29.82 in1009.8 mb - 0.00 in0.0 mm 0.00 in0.0 mm
03:50 AM 76.8°F24.9°C 69.8°F21.0°C 79% 2.3 mph SSE3.7 kmh SSE 4.6 mph7.4 kmh 29.82 in1009.8 mb - 0.00 in0.0 mm 0.00 in0.0 mm
04:00 AM 76.5°F24.7°C 69.9°F21.1°C 80% 2.3 mph SSE3.7 kmh SSE 5.8 mph9.3 kmh 29.82 in1009.8 mb - 0.00 in0.0 mm 0.00 in0.0 mm
04:10 AM 76.2°F24.6°C 69.9°F21.1°C 81% 3.5 mph SSE5.6 kmh SSE 3.5 mph5.6 kmh 29.82 in1009.8 mb - 0.00 in0.0 mm 0.00 in0.0 mm
04:20 AM 75.9°F24.4°C 69.7°F20.9°C 81% 2.3 mph SSE3.7 kmh SSE 5.8 mph9.3 kmh 29.82 in1009.8 mb - 0.00 in0.0 mm 0.00 in0.0 mm
04:30 AM 75.7°F24.3°C 69.8°F21.0°C 82% 3.5 mph SSE5.6 kmh SSE 4.6 mph7.4 kmh 29.82 in1009.8 mb - 0.00 in0.0 mm 0.00 in0.0 mm
04:40 AM 75.5°F24.2°C 69.6°F20.9°C 82% 3.5 mph SSE5.6 kmh SSE 5.8 mph9.3 kmh 29.83 in1010.2 mb - 0.00 in0.0 mm 0.00 in0.0 mm
04:50 AM 75.3°F24.1°C 69.8°F21.0°C 83% 2.3 mph SSE3.7 kmh SSE 5.8 mph9.3 kmh 29.83 in1010.2 mb - 0.00 in0.0 mm 0.00 in0.0 mm
05:00 AM 75.0°F23.9°C 69.5°F20.8°C 83% 1.2 mph SSE1.9 kmh SSE 6.9 mph11.1 kmh 29.83 in1010.2 mb - 0.00 in0.0 mm 0.00 in0.0 mm
05:10 AM 74.8°F23.8°C 69.3°F20.7°C 83% 3.5 mph SSE5.6 kmh SSE 5.8 mph9.3 kmh 29.83 in1010.2 mb - 0.00 in0.0 mm 0.00 in0.0 mm
05:20 AM 74.6°F23.7°C 69.4°F20.8°C 84% 2.3 mph SE3.7 kmh SE 3.5 mph5.6 kmh 29.84 in1010.5 mb - 0.00 in0.0 mm 0.00 in0.0 mm
05:30 AM 74.4°F23.6°C 69.2°F20.7°C 84% 2.3 mph SE3.7 kmh SE 4.6 mph7.4 kmh 29.84 in1010.5 mb - 0.00 in0.0 mm 0.00 in0.0 mm
05:40 AM 74.1°F23.4°C 69.3°F20.7°C 85% 3.5 mph S5.6 kmh S 6.9 mph11.1 kmh 29.84 in1010.5 mb - 0.00 in0.0 mm 0.00 in0.0 mm
05:50 AM 73.9°F23.3°C 69.1°F20.6°C 85% 3.5 mph SSE5.6 kmh SSE 6.9 mph11.1 kmh 29.84 in1010.5 mb - 0.00 in0.0 mm 0.00 in0.0 mm
06:00 AM 73.7°F23.2°C 69.2°F20.7°C 86% 2.3 mph SSE3.7 kmh SSE 3.5 mph5.6 kmh 29.84 in1010.5 mb - 0.00 in0.0 mm 0.00 in0.0 mm
06:10 AM 73.5°F23.1°C 69.1°F20.6°C 86% 4.6 mph SSE7.4 kmh SSE 5.8 mph9.3 kmh 29.84 in1010.5 mb - 0.00 in0.0 mm 0.00 in0.0 mm
06:20 AM 73.3°F22.9°C 69.2°F20.7°C 87% 2.3 mph SSE3.7 kmh SSE 3.5 mph5.6 kmh 29.84 in1010.5 mb - 0.00 in0.0 mm 0.00 in0.0 mm
06:30 AM 73.2°F22.9°C 69.1°F20.6°C 87% 4.6 mph SSE7.4 kmh SSE 5.8 mph9.3 kmh 29.84 in1010.5 mb - 0.00 in0.0 mm 0.00 in0.0 mm
06:40 AM 73.1°F22.8°C 69.0°F20.6°C 87% 5.8 mph SE9.3 kmh SE 9.2 mph14.8 kmh 29.84 in1010.5 mb - 0.00 in0.0 mm 0.00 in0.0 mm
06:50 AM 72.9°F22.7°C 69.1°F20.6°C 88% 3.5 mph SE5.6 kmh SE 5.8 mph9.3 kmh 29.85 in1010.8 mb - 0.00 in0.0 mm 0.00 in0.0 mm
07:00 AM 72.8°F22.7°C 69.0°F20.6°C 88% 3.5 mph SSE5.6 kmh SSE 5.8 mph9.3 kmh 29.85 in1010.8 mb - 0.00 in0.0 mm 0.00 in0.0 mm
07:10 AM 72.6°F22.6°C 68.8°F20.4°C 88% 4.6 mph SE7.4 kmh SE 8.1 mph13.0 kmh 29.85 in1010.8 mb - 0.00 in0.0 mm 0.00 in0.0 mm
07:20 AM 72.6°F22.6°C 69.2°F20.7°C 89% 4.6 mph SSE7.4 kmh SSE 4.6 mph7.4 kmh 29.86 in1011.2 mb - 0.00 in0.0 mm 0.00 in0.0 mm
07:30 AM 72.5°F22.5°C 69.1°F20.6°C 89% 4.6 mph SSE7.4 kmh SSE 8.1 mph13.0 kmh 29.86 in1011.2 mb - 0.00 in0.0 mm 0.00 in0.0 mm
07:40 AM 72.5°F22.5°C 69.1°F20.6°C 89% 4.6 mph SE7.4 kmh SE 8.1 mph13.0 kmh 29.86 in1011.2 mb - 0.00 in0.0 mm 0.00 in0.0 mm
07:50 AM 72.5°F22.5°C 69.1°F20.6°C 89% 4.6 mph S7.4 kmh S 4.6 mph7.4 kmh 29.86 in1011.2 mb - 0.00 in0.0 mm 0.00 in0.0 mm
08:00 AM 72.6°F22.6°C 69.5°F20.8°C 90% 5.8 mph SE9.3 kmh SE 8.1 mph13.0 kmh 29.86 in1011.2 mb - 0.00 in0.0 mm 0.00 in0.0 mm
08:10 AM 72.9°F22.7°C 69.8°F21.0°C 90% 5.8 mph SE9.3 kmh SE 10.4 mph16.7 kmh 29.86 in1011.2 mb - 0.00 in0.0 mm 0.00 in0.0 mm
08:20 AM 73.2°F22.9°C 69.8°F21.0°C 89% 4.6 mph SSE7.4 kmh SSE 4.6 mph7.4 kmh 29.86 in1011.2 mb - 0.00 in0.0 mm 0.00 in0.0 mm
08:30 AM 73.5°F23.1°C 70.1°F21.2°C 89% 5.8 mph SSE9.3 kmh SSE 6.9 mph11.1 kmh 29.87 in1011.5 mb - 0.00 in0.0 mm 0.00 in0.0 mm
08:40 AM 73.7°F23.2°C 70.3°F21.3°C 89% 5.8 mph S9.3 kmh S 5.8 mph9.3 kmh 29.87 in1011.5 mb - 0.00 in0.0 mm 0.00 in0.0 mm
08:50 AM 74.0°F23.3°C 70.5°F21.4°C 89% 5.8 mph S9.3 kmh S 11.5 mph18.5 kmh 29.87 in1011.5 mb - 0.00 in0.0 mm 0.00 in0.0 mm
09:00 AM 74.4°F23.6°C 70.6°F21.4°C 88% 4.6 mph SSE7.4 kmh SSE 11.5 mph18.5 kmh 29.88 in1011.9 mb - 0.00 in0.0 mm 0.00 in0.0 mm
09:10 AM 74.9°F23.8°C 71.1°F21.7°C 88% 8.1 mph SSE13.0 kmh SSE 10.4 mph16.7 kmh 29.88 in1011.9 mb - 0.00 in0.0 mm 0.00 in0.0 mm
09:20 AM 75.6°F24.2°C 71.5°F21.9°C 87% 5.8 mph S9.3 kmh S 10.4 mph16.7 kmh 29.88 in1011.9 mb - 0.00 in0.0 mm 0.00 in0.0 mm
09:30 AM 76.5°F24.7°C 71.7°F22.1°C 85% 5.8 mph S9.3 kmh S 8.1 mph13.0 kmh 29.89 in1012.2 mb - 0.00 in0.0 mm 0.00 in0.0 mm
09:40 AM 76.9°F24.9°C 71.7°F22.1°C 84% 6.9 mph S11.1 kmh S 10.4 mph16.7 kmh 29.89 in1012.2 mb - 0.00 in0.0 mm 0.00 in0.0 mm
09:50 AM 77.2°F25.1°C 71.6°F22.0°C 83% 8.1 mph S13.0 kmh S 11.5 mph18.5 kmh 29.89 in1012.2 mb - 0.00 in0.0 mm 0.00 in0.0 mm
10:00 AM 78.2°F25.7°C 72.2°F22.3°C 82% 4.6 mph SSE7.4 kmh SSE 5.8 mph9.3 kmh 29.89 in1012.2 mb - 0.00 in0.0 mm 0.00 in0.0 mm
10:10 AM 79.2°F26.2°C 72.5°F22.5°C 80% 8.1 mph S13.0 kmh S 11.5 mph18.5 kmh 29.89 in1012.2 mb - 0.00 in0.0 mm 0.00 in0.0 mm
10:20 AM 80.0°F26.7°C 72.5°F22.5°C 78% 6.9 mph SSE11.1 kmh SSE 9.2 mph14.8 kmh 29.89 in1012.2 mb - 0.00 in0.0 mm 0.00 in0.0 mm
10:30 AM 80.6°F27.0°C 72.8°F22.7°C 77% 6.9 mph SSE11.1 kmh SSE 8.1 mph13.0 kmh 29.90 in1012.5 mb - 0.00 in0.0 mm 0.00 in0.0 mm
10:40 AM 81.6°F27.6°C 72.9°F22.7°C 75% 5.8 mph SSE9.3 kmh SSE 5.8 mph9.3 kmh 29.90 in1012.5 mb - 0.00 in0.0 mm 0.00 in0.0 mm
10:50 AM 82.2°F27.9°C 72.6°F22.6°C 73% 9.2 mph S14.8 kmh S 11.5 mph18.5 kmh 29.90 in1012.5 mb - 0.00 in0.0 mm 0.00 in0.0 mm
11:00 AM 82.9°F28.3°C 73.4°F23.0°C 73% 5.8 mph SE9.3 kmh SE 11.5 mph18.5 kmh 29.89 in1012.2 mb - 0.00 in0.0 mm 0.00 in0.0 mm
11:10 AM 83.7°F28.7°C 73.7°F23.2°C 72% 6.9 mph S11.1 kmh S 6.9 mph11.1 kmh 29.89 in1012.2 mb - 0.00 in0.0 mm 0.00 in0.0 mm
11:20 AM 84.6°F29.2°C 74.2°F23.4°C 71% 4.6 mph S7.4 kmh S 9.2 mph14.8 kmh 29.89 in1012.2 mb - 0.00 in0.0 mm 0.00 in0.0 mm
11:30 AM 84.6°F29.2°C 73.3°F22.9°C 69% 6.9 mph S11.1 kmh S 11.5 mph18.5 kmh 29.89 in1012.2 mb - 0.00 in0.0 mm 0.00 in0.0 mm
11:40 AM 85.6°F29.8°C 73.4°F23.0°C 67% 8.1 mph SSE13.0 kmh SSE 9.2 mph14.8 kmh 29.88 in1011.9 mb - 0.00 in0.0 mm 0.00 in0.0 mm
11:50 AM 85.8°F29.9°C 73.6°F23.1°C 67% 9.2 mph SE14.8 kmh SE 11.5 mph18.5 kmh 29.88 in1011.9 mb - 0.00 in0.0 mm 0.00 in0.0 mm
12:00 PM 86.6°F30.3°C 73.9°F23.3°C 66% 4.6 mph SSE7.4 kmh SSE 9.2 mph14.8 kmh 29.88 in1011.9 mb - 0.00 in0.0 mm 0.00 in0.0 mm
12:10 PM 87.3°F30.7°C 74.1°F23.4°C 65% 8.1 mph SSE13.0 kmh SSE 11.5 mph18.5 kmh 29.88 in1011.9 mb - 0.00 in0.0 mm 0.00 in0.0 mm
12:20 PM 87.8°F31.0°C 74.1°F23.4°C 64% 6.9 mph SSE11.1 kmh SSE 10.4 mph16.7 kmh 29.88 in1011.9 mb - 0.00 in0.0 mm 0.00 in0.0 mm
12:30 PM 88.6°F31.4°C 73.4°F23.0°C 61% 8.1 mph SSE13.0 kmh SSE 10.4 mph16.7 kmh 29.87 in1011.5 mb - 0.00 in0.0 mm 0.00 in0.0 mm
12:40 PM 88.3°F31.3°C 74.1°F23.4°C 63% 3.5 mph S5.6 kmh S 11.5 mph18.5 kmh 29.87 in1011.5 mb - 0.00 in0.0 mm 0.00 in0.0 mm
12:50 PM 88.2°F31.2°C 73.6°F23.1°C 62% 8.1 mph SE13.0 kmh SE 13.8 mph22.2 kmh 29.87 in1011.5 mb - 0.00 in0.0 mm 0.00 in0.0 mm
01:00 PM 88.1°F31.2°C 73.9°F23.3°C 63% 8.1 mph S13.0 kmh S 11.5 mph18.5 kmh 29.87 in1011.5 mb - 0.00 in0.0 mm 0.00 in0.0 mm
01:10 PM 89.0°F31.7°C 73.8°F23.2°C 61% 8.1 mph S13.0 kmh S 11.5 mph18.5 kmh 29.86 in1011.2 mb - 0.00 in0.0 mm 0.00 in0.0 mm
01:20 PM 88.8°F31.6°C 73.1°F22.8°C 60% 9.2 mph SSE14.8 kmh SSE 12.7 mph20.4 kmh 29.86 in1011.2 mb - 0.00 in0.0 mm 0.00 in0.0 mm
01:30 PM 89.2°F31.8°C 73.5°F23.1°C 60% 6.9 mph S11.1 kmh S 13.8 mph22.2 kmh 29.86 in1011.2 mb - 0.00 in0.0 mm 0.00 in0.0 mm
01:40 PM 89.4°F31.9°C 73.2°F22.9°C 59% 5.8 mph S9.3 kmh S 8.1 mph13.0 kmh 29.86 in1011.2 mb - 0.00 in0.0 mm 0.00 in0.0 mm
01:50 PM 89.8°F32.1°C 73.0°F22.8°C 58% 5.8 mph S9.3 kmh S 19.6 mph31.5 kmh 29.86 in1011.2 mb - 0.00 in0.0 mm 0.00 in0.0 mm
02:00 PM 89.8°F32.1°C 72.6°F22.6°C 57% 4.6 mph S7.4 kmh S 13.8 mph22.2 kmh 29.86 in1011.2 mb - 0.00 in0.0 mm 0.00 in0.0 mm
02:10 PM 89.6°F32.0°C 71.8°F22.1°C 56% 6.9 mph SSE11.1 kmh SSE 11.5 mph18.5 kmh 29.85 in1010.8 mb - 0.00 in0.0 mm 0.00 in0.0 mm
02:20 PM 89.6°F32.0°C 72.3°F22.4°C 57% 8.1 mph SE13.0 kmh SE 12.7 mph20.4 kmh 29.85 in1010.8 mb - 0.00 in0.0 mm 0.00 in0.0 mm
02:30 PM 90.3°F32.4°C 73.0°F22.8°C 57% 8.1 mph S13.0 kmh S 11.5 mph18.5 kmh 29.85 in1010.8 mb - 0.00 in0.0 mm 0.00 in0.0 mm
02:40 PM 89.1°F31.7°C 72.4°F22.4°C 58% 9.2 mph SSE14.8 kmh SSE 12.7 mph20.4 kmh 29.85 in1010.8 mb - 0.00 in0.0 mm 0.00 in0.0 mm
02:50 PM 90.0°F32.2°C 72.2°F22.3°C 56% 8.1 mph SE13.0 kmh SE 12.7 mph20.4 kmh 29.85 in1010.8 mb - 0.00 in0.0 mm 0.00 in0.0 mm
03:00 PM 89.9°F32.2°C 72.6°F22.6°C 57% 8.1 mph S13.0 kmh S 13.8 mph22.2 kmh 29.84 in1010.5 mb - 0.00 in0.0 mm 0.00 in0.0 mm
03:10 PM 90.1°F32.3°C 72.3°F22.4°C 56% 8.1 mph S13.0 kmh S 13.8 mph22.2 kmh 29.84 in1010.5 mb - 0.00 in0.0 mm 0.00 in0.0 mm
03:20 PM 89.8°F32.1°C 72.0°F22.2°C 56% 9.2 mph SE14.8 kmh SE 16.1 mph25.9 kmh 29.84 in1010.5 mb - 0.00 in0.0 mm 0.00 in0.0 mm
03:30 PM 89.8°F32.1°C 73.0°F22.8°C 58% 5.8 mph SSE9.3 kmh SSE 11.5 mph18.5 kmh 29.83 in1010.2 mb - 0.00 in0.0 mm 0.00 in0.0 mm
03:40 PM 89.9°F32.2°C 72.1°F22.3°C 56% 10.4 mph SSE16.7 kmh SSE 18.4 mph29.6 kmh 29.83 in1010.2 mb - 0.00 in0.0 mm 0.00 in0.0 mm
03:50 PM 89.8°F32.1°C 72.0°F22.2°C 56% 12.7 mph S20.4 kmh S 12.7 mph20.4 kmh 29.83 in1010.2 mb - 0.00 in0.0 mm 0.00 in0.0 mm
04:00 PM 89.8°F32.1°C 72.0°F22.2°C 56% 8.1 mph S13.0 kmh S 15.0 mph24.1 kmh 29.83 in1010.2 mb - 0.00 in0.0 mm 0.00 in0.0 mm
04:10 PM 89.6°F32.0°C 72.4°F22.4°C 57% 6.9 mph SSE11.1 kmh SSE 10.4 mph16.7 kmh 29.82 in1009.8 mb - 0.00 in0.0 mm 0.00 in0.0 mm
04:20 PM 89.5°F31.9°C 72.3°F22.4°C 57% 12.7 mph SSE20.4 kmh SSE 21.9 mph35.2 kmh 29.82 in1009.8 mb - 0.00 in0.0 mm 0.00 in0.0 mm
04:30 PM 89.6°F32.0°C 71.8°F22.1°C 56% 9.2 mph SSE14.8 kmh SSE 16.1 mph25.9 kmh 29.82 in1009.8 mb - 0.00 in0.0 mm 0.00 in0.0 mm
04:40 PM 89.0°F31.7°C 72.3°F22.4°C 58% 6.9 mph S11.1 kmh S 11.5 mph18.5 kmh 29.82 in1009.8 mb - 0.00 in0.0 mm 0.00 in0.0 mm
04:50 PM 88.9°F31.6°C 71.7°F22.1°C 57% 6.9 mph S11.1 kmh S 10.4 mph16.7 kmh 29.82 in1009.8 mb - 0.00 in0.0 mm 0.00 in0.0 mm
05:00 PM 88.8°F31.6°C 71.6°F22.0°C 57% 9.2 mph S14.8 kmh S 19.6 mph31.5 kmh 29.82 in1009.8 mb - 0.00 in0.0 mm 0.00 in0.0 mm
05:10 PM 88.6°F31.4°C 71.4°F21.9°C 57% 10.4 mph S16.7 kmh S 12.7 mph20.4 kmh 29.82 in1009.8 mb - 0.00 in0.0 mm 0.00 in0.0 mm
05:20 PM 88.4°F31.3°C 71.2°F21.8°C 57% 12.7 mph SSE20.4 kmh SSE 15.0 mph24.1 kmh 29.82 in1009.8 mb - 0.00 in0.0 mm 0.00 in0.0 mm
05:30 PM 88.5°F31.4°C 71.3°F21.8°C 57% 10.4 mph SSE16.7 kmh SSE 15.0 mph24.1 kmh 29.82 in1009.8 mb - 0.00 in0.0 mm 0.00 in0.0 mm
05:40 PM 88.2°F31.2°C 71.0°F21.7°C 57% 9.2 mph SSE14.8 kmh SSE 13.8 mph22.2 kmh 29.82 in1009.8 mb - 0.00 in0.0 mm 0.00 in0.0 mm
05:50 PM 88.0°F31.1°C 71.4°F21.9°C 58% 8.1 mph S13.0 kmh S 13.8 mph22.2 kmh 29.82 in1009.8 mb - 0.00 in0.0 mm 0.00 in0.0 mm
06:00 PM 87.7°F30.9°C 71.1°F21.7°C 58% 6.9 mph SE11.1 kmh SE 11.5 mph18.5 kmh 29.82 in1009.8 mb - 0.00 in0.0 mm 0.00 in0.0 mm
06:10 PM 87.4°F30.8°C 70.8°F21.6°C 58% 5.8 mph S9.3 kmh S 6.9 mph11.1 kmh 29.82 in1009.8 mb - 0.00 in0.0 mm 0.00 in0.0 mm
06:20 PM 87.1°F30.6°C 70.5°F21.4°C 58% 5.8 mph S9.3 kmh S 6.9 mph11.1 kmh 29.82 in1009.8 mb - 0.00 in0.0 mm 0.00 in0.0 mm
06:30 PM 86.8°F30.4°C 70.2°F21.2°C 58% 8.1 mph SSE13.0 kmh SSE 19.6 mph31.5 kmh 29.82 in1009.8 mb - 0.00 in0.0 mm 0.00 in0.0 mm
06:40 PM 86.4°F30.2°C 70.4°F21.3°C 59% 8.1 mph SE13.0 kmh SE 9.2 mph14.8 kmh 29.83 in1010.2 mb - 0.00 in0.0 mm 0.00 in0.0 mm
06:50 PM 86.1°F30.1°C 70.1°F21.2°C 59% 9.2 mph S14.8 kmh S 10.4 mph16.7 kmh 29.83 in1010.2 mb - 0.00 in0.0 mm 0.00 in0.0 mm
07:00 PM 85.7°F29.8°C 70.7°F21.5°C 61% 8.1 mph SE13.0 kmh SE 10.4 mph16.7 kmh 29.83 in1010.2 mb - 0.00 in0.0 mm 0.00 in0.0 mm
07:10 PM 85.3°F29.6°C 70.3°F21.3°C 61% 6.9 mph SSE11.1 kmh SSE 12.7 mph20.4 kmh 29.83 in1010.2 mb - 0.00 in0.0 mm 0.00 in0.0 mm
07:20 PM 84.9°F29.4°C 70.4°F21.3°C 62% 4.6 mph S7.4 kmh S 8.1 mph13.0 kmh 29.83 in1010.2 mb - 0.00 in0.0 mm 0.00 in0.0 mm
07:30 PM 84.5°F29.2°C 70.0°F21.1°C 62% 4.6 mph S7.4 kmh S 5.8 mph9.3 kmh 29.83 in1010.2 mb - 0.00 in0.0 mm 0.00 in0.0 mm
07:40 PM 84.0°F28.9°C 70.1°F21.2°C 63% 5.8 mph SE9.3 kmh SE 9.2 mph14.8 kmh 29.82 in1009.8 mb - 0.00 in0.0 mm 0.00 in0.0 mm
07:50 PM 83.7°F28.7°C 69.7°F20.9°C 63% 3.5 mph SSE5.6 kmh SSE 4.6 mph7.4 kmh 29.83 in1010.2 mb - 0.00 in0.0 mm 0.00 in0.0 mm
08:00 PM 83.3°F28.5°C 70.3°F21.3°C 65% 4.6 mph SSE7.4 kmh SSE 8.1 mph13.0 kmh 29.82 in1009.8 mb - 0.00 in0.0 mm 0.00 in0.0 mm
08:10 PM 82.9°F28.3°C 70.4°F21.3°C 66% 3.5 mph SE5.6 kmh SE 6.9 mph11.1 kmh 29.83 in1010.2 mb - 0.00 in0.0 mm 0.00 in0.0 mm
08:20 PM 82.5°F28.1°C 70.0°F21.1°C 66% 3.5 mph SE5.6 kmh SE 3.5 mph5.6 kmh 29.83 in1010.2 mb - 0.00 in0.0 mm 0.00 in0.0 mm
08:30 PM 82.2°F27.9°C 70.2°F21.2°C 67% 3.5 mph ESE5.6 kmh ESE 3.5 mph5.6 kmh 29.83 in1010.2 mb - 0.00 in0.0 mm 0.00 in0.0 mm
08:40 PM 82.0°F27.8°C 70.0°F21.1°C 67% 3.5 mph SSE5.6 kmh SSE 4.6 mph7.4 kmh 29.83 in1010.2 mb - 0.00 in0.0 mm 0.00 in0.0 mm
08:50 PM 81.8°F27.7°C 70.2°F21.2°C 68% 3.5 mph SE5.6 kmh SE 6.9 mph11.1 kmh 29.84 in1010.5 mb - 0.00 in0.0 mm 0.00 in0.0 mm
09:00 PM 81.5°F27.5°C 69.9°F21.1°C 68% 4.6 mph SE7.4 kmh SE 8.1 mph13.0 kmh 29.84 in1010.5 mb - 0.00 in0.0 mm 0.00 in0.0 mm
09:10 PM 81.4°F27.4°C 70.2°F21.2°C 69% 4.6 mph SSE7.4 kmh SSE 9.2 mph14.8 kmh 29.84 in1010.5 mb - 0.00 in0.0 mm 0.00 in0.0 mm
09:20 PM 81.2°F27.3°C 70.1°F21.2°C 69% 4.6 mph SSE7.4 kmh SSE 4.6 mph7.4 kmh 29.84 in1010.5 mb - 0.00 in0.0 mm 0.00 in0.0 mm
09:30 PM 80.9°F27.2°C 70.2°F21.2°C 70% 5.8 mph SE9.3 kmh SE 6.9 mph11.1 kmh 29.85 in1010.8 mb - 0.00 in0.0 mm 0.00 in0.0 mm
09:40 PM 80.8°F27.1°C 70.1°F21.2°C 70% 4.6 mph SE7.4 kmh SE 6.9 mph11.1 kmh 29.85 in1010.8 mb - 0.00 in0.0 mm 0.00 in0.0 mm
09:50 PM 80.7°F27.1°C 70.0°F21.1°C 70% 4.6 mph SSE7.4 kmh SSE 8.1 mph13.0 kmh 29.85 in1010.8 mb - 0.00 in0.0 mm 0.00 in0.0 mm
10:00 PM 80.7°F27.1°C 70.0°F21.1°C 70% 5.8 mph SE9.3 kmh SE 10.4 mph16.7 kmh 29.86 in1011.2 mb - 0.00 in0.0 mm 0.00 in0.0 mm
10:10 PM 80.5°F26.9°C 69.8°F21.0°C 70% 4.6 mph SSE7.4 kmh SSE 4.6 mph7.4 kmh 29.86 in1011.2 mb - 0.00 in0.0 mm 0.00 in0.0 mm
10:20 PM 80.4°F26.9°C 69.7°F20.9°C 70% 5.8 mph SSE9.3 kmh SSE 10.4 mph16.7 kmh 29.86 in1011.2 mb - 0.00 in0.0 mm 0.00 in0.0 mm
10:30 PM 80.3°F26.8°C 69.6°F20.9°C 70% 5.8 mph S9.3 kmh S 10.4 mph16.7 kmh 29.86 in1011.2 mb - 0.00 in0.0 mm 0.00 in0.0 mm
10:40 PM 80.1°F26.7°C 69.4°F20.8°C 70% 5.8 mph SSE9.3 kmh SSE 6.9 mph11.1 kmh 29.86 in1011.2 mb - 0.00 in0.0 mm 0.00 in0.0 mm
10:50 PM 79.9°F26.6°C 69.7°F20.9°C 71% 5.8 mph SSE9.3 kmh SSE 9.2 mph14.8 kmh 29.86 in1011.2 mb - 0.00 in0.0 mm 0.00 in0.0 mm
11:00 PM 79.7°F26.5°C 69.5°F20.8°C 71% 3.5 mph SSE5.6 kmh SSE 8.1 mph13.0 kmh 29.86 in1011.2 mb - 0.00 in0.0 mm 0.00 in0.0 mm
11:10 PM 79.4°F26.3°C 69.2°F20.7°C 71% 3.5 mph SSE5.6 kmh SSE 5.8 mph9.3 kmh 29.86 in1011.2 mb - 0.00 in0.0 mm 0.00 in0.0 mm
11:20 PM 79.2°F26.2°C 69.4°F20.8°C 72% 3.5 mph SSE5.6 kmh SSE 6.9 mph11.1 kmh 29.86 in1011.2 mb - 0.00 in0.0 mm 0.00 in0.0 mm
11:30 PM 79.0°F26.1°C 69.2°F20.7°C 72% 5.8 mph SSE9.3 kmh SSE 6.9 mph11.1 kmh 29.86 in1011.2 mb - 0.00 in0.0 mm 0.00 in0.0 mm
11:40 PM 78.9°F26.1°C 69.1°F20.6°C 72% 4.6 mph S7.4 kmh S 9.2 mph14.8 kmh 29.86 in1011.2 mb - 0.00 in0.0 mm 0.00 in0.0 mm
11:50 PM 78.7°F25.9°C 68.9°F20.5°C 72% 6.9 mph SSE11.1 kmh SSE 10.4 mph16.7 kmh 29.86 in1011.2 mb - 0.00 in0.0 mm 0.00 in0.0 mm